sensor_id;sensor_type;location;lat;lon;timestamp;P1;durP1;ratioP1;P2;durP2;ratioP2
69917;SDS011;57203;42.672;23.334;2022-09-09T00:00:52;9.8;;;3.7;;
69917;SDS011;57203;42.672;23.334;2022-09-09T00:01:50;5.3;;;4.0;;
69917;SDS011;57203;42.672;23.334;2022-09-09T00:02:53;5.3;;;4.5;;
69917;SDS011;57203;42.672;23.334;2022-09-09T00:03:51;6.0;;;4.1;;
69917;SDS011;57203;42.672;23.334;2022-09-09T00:04:53;5.4;;;4.2;;
69917;SDS011;57203;42.672;23.334;2022-09-09T00:05:53;5.8;;;3.9;;
69917;SDS011;57203;42.672;23.334;2022-09-09T00:06:53;5.8;;;3.7;;
69917;SDS011;57203;42.672;23.334;2022-09-09T00:07:51;5.7;;;3.2;;
69917;SDS011;57203;42.672;23.334;2022-09-09T00:08:54;5.6;;;3.3;;
69917;SDS011;57203;42.672;23.334;2022-09-09T00:09:52;5.6;;;3.6;;
69917;SDS011;57203;42.672;23.334;2022-09-09T00:10:52;4.3;;;3.3;;
69917;SDS011;57203;42.672;23.334;2022-09-09T00:11:52;4.1;;;3.5;;
69917;SDS011;57203;42.672;23.334;2022-09-09T00:12:53;4.1;;;3.7;;
69917;SDS011;57203;42.672;23.334;2022-09-09T00:13:52;5.1;;;3.6;;
69917;SDS011;57203;42.672;23.334;2022-09-09T00:14:53;6.7;;;3.9;;
69917;SDS011;57203;42.672;23.334;2022-09-09T00:15:54;6.7;;;4.0;;
69917;SDS011;57203;42.672;23.334;2022-09-09T00:16:54;4.7;;;3.7;;
69917;SDS011;57203;42.672;23.334;2022-09-09T00:17:55;4.7;;;3.8;;
69917;SDS011;57203;42.672;23.334;2022-09-09T00:18:55;5.4;;;4.1;;
69917;SDS011;57203;42.672;23.334;2022-09-09T00:19:54;7.3;;;3.8;;
69917;SDS011;57203;42.672;23.334;2022-09-09T00:20:55;5.2;;;3.9;;
69917;SDS011;57203;42.672;23.334;2022-09-09T00:21:56;5.2;;;3.8;;
69917;SDS011;57203;42.672;23.334;2022-09-09T00:23:54;5.7;;;4.0;;
69917;SDS011;57203;42.672;23.334;2022-09-09T00:24:54;4.9;;;3.9;;
69917;SDS011;57203;42.672;23.334;2022-09-09T00:25:58;5.3;;;3.7;;
69917;SDS011;57203;42.672;23.334;2022-09-09T00:26:56;5.3;;;4.1;;
69917;SDS011;57203;42.672;23.334;2022-09-09T00:27:55;5.7;;;3.5;;
69917;SDS011;57203;42.672;23.334;2022-09-09T00:29:03;4.5;;;4.0;;
69917;SDS011;57203;42.672;23.334;2022-09-09T00:29:56;5.6;;;3.3;;
69917;SDS011;57203;42.672;23.334;2022-09-09T00:30:55;5.6;;;4.2;;
69917;SDS011;57203;42.672;23.334;2022-09-09T00:31:56;5.7;;;3.8;;
69917;SDS011;57203;42.672;23.334;2022-09-09T00:32:58;5.0;;;4.0;;
69917;SDS011;57203;42.672;23.334;2022-09-09T00:34:58;6.0;;;3.6;;
69917;SDS011;57203;42.672;23.334;2022-09-09T00:35:57;5.0;;;3.5;;
69917;SDS011;57203;42.672;23.334;2022-09-09T00:36:57;4.8;;;3.7;;
69917;SDS011;57203;42.672;23.334;2022-09-09T00:37:58;5.3;;;3.8;;
69917;SDS011;57203;42.672;23.334;2022-09-09T00:39:58;5.8;;;3.9;;
69917;SDS011;57203;42.672;23.334;2022-09-09T00:40:58;5.2;;;4.2;;
69917;SDS011;57203;42.672;23.334;2022-09-09T00:42:02;5.0;;;3.4;;
69917;SDS011;57203;42.672;23.334;2022-09-09T00:43:02;4.5;;;4.2;;
69917;SDS011;57203;42.672;23.334;2022-09-09T00:44:00;5.6;;;3.8;;
69917;SDS011;57203;42.672;23.334;2022-09-09T00:44:59;5.4;;;4.2;;
69917;SDS011;57203;42.672;23.334;2022-09-09T00:47:01;7.2;;;3.9;;
69917;SDS011;57203;42.672;23.334;2022-09-09T00:47:59;5.4;;;4.1;;
69917;SDS011;57203;42.672;23.334;2022-09-09T00:50:00;6.8;;;4.0;;
69917;SDS011;57203;42.672;23.334;2022-09-09T00:51:00;6.8;;;3.9;;
69917;SDS011;57203;42.672;23.334;2022-09-09T00:52:02;7.0;;;3.8;;
69917;SDS011;57203;42.672;23.334;2022-09-09T00:53:04;5.2;;;3.9;;
69917;SDS011;57203;42.672;23.334;2022-09-09T00:54:05;6.8;;;4.5;;
69917;SDS011;57203;42.672;23.334;2022-09-09T00:55:03;6.8;;;3.9;;
69917;SDS011;57203;42.672;23.334;2022-09-09T00:56:03;7.8;;;4.4;;
69917;SDS011;57203;42.672;23.334;2022-09-09T00:57:04;7.8;;;3.9;;
69917;SDS011;57203;42.672;23.334;2022-09-09T01:01:02;6.6;;;4.5;;
69917;SDS011;57203;42.672;23.334;2022-09-09T01:02:02;5.5;;;4.4;;
69917;SDS011;57203;42.672;23.334;2022-09-09T01:03:05;6.8;;;4.2;;
69917;SDS011;57203;42.672;23.334;2022-09-09T01:04:03;6.6;;;3.6;;
69917;SDS011;57203;42.672;23.334;2022-09-09T01:05:04;4.3;;;4.0;;
69917;SDS011;57203;42.672;23.334;2022-09-09T01:07:04;5.8;;;4.3;;
69917;SDS011;57203;42.672;23.334;2022-09-09T01:08:08;6.4;;;4.0;;
69917;SDS011;57203;42.672;23.334;2022-09-09T01:09:07;5.4;;;4.2;;
69917;SDS011;57203;42.672;23.334;2022-09-09T01:10:05;7.3;;;4.4;;
69917;SDS011;57203;42.672;23.334;2022-09-09T01:11:04;5.3;;;4.5;;
69917;SDS011;57203;42.672;23.334;2022-09-09T01:12:07;5.9;;;4.1;;
69917;SDS011;57203;42.672;23.334;2022-09-09T01:14:10;5.1;;;4.3;;
69917;SDS011;57203;42.672;23.334;2022-09-09T01:15:09;6.5;;;4.4;;
69917;SDS011;57203;42.672;23.334;2022-09-09T01:16:07;6.1;;;4.6;;
69917;SDS011;57203;42.672;23.334;2022-09-09T01:17:08;6.5;;;4.3;;
69917;SDS011;57203;42.672;23.334;2022-09-09T01:19:06;5.5;;;4.1;;
69917;SDS011;57203;42.672;23.334;2022-09-09T01:20:09;6.3;;;5.2;;
69917;SDS011;57203;42.672;23.334;2022-09-09T01:21:08;7.5;;;4.2;;
69917;SDS011;57203;42.672;23.334;2022-09-09T01:22:09;5.9;;;4.3;;
69917;SDS011;57203;42.672;23.334;2022-09-09T01:23:12;5.9;;;4.5;;
69917;SDS011;57203;42.672;23.334;2022-09-09T01:24:16;6.3;;;4.3;;
69917;SDS011;57203;42.672;23.334;2022-09-09T01:25:11;7.6;;;4.8;;
69917;SDS011;57203;42.672;23.334;2022-09-09T01:26:10;6.9;;;4.1;;
69917;SDS011;57203;42.672;23.334;2022-09-09T01:27:07;6.5;;;4.2;;
69917;SDS011;57203;42.672;23.334;2022-09-09T01:28:08;6.5;;;4.7;;
69917;SDS011;57203;42.672;23.334;2022-09-09T01:30:09;6.7;;;4.0;;
69917;SDS011;57203;42.672;23.334;2022-09-09T01:31:09;6.4;;;4.4;;
69917;SDS011;57203;42.672;23.334;2022-09-09T01:33:10;5.6;;;4.6;;
69917;SDS011;57203;42.672;23.334;2022-09-09T01:35:10;6.1;;;4.3;;
69917;SDS011;57203;42.672;23.334;2022-09-09T01:36:10;5.5;;;4.5;;
69917;SDS011;57203;42.672;23.334;2022-09-09T01:37:10;7.3;;;3.8;;
69917;SDS011;57203;42.672;23.334;2022-09-09T01:38:10;6.7;;;4.6;;
69917;SDS011;57203;42.672;23.334;2022-09-09T01:39:10;8.1;;;4.3;;
69917;SDS011;57203;42.672;23.334;2022-09-09T01:40:10;5.6;;;4.7;;
69917;SDS011;57203;42.672;23.334;2022-09-09T01:41:10;6.2;;;4.1;;
69917;SDS011;57203;42.672;23.334;2022-09-09T01:42:12;5.2;;;4.7;;
69917;SDS011;57203;42.672;23.334;2022-09-09T01:43:11;6.4;;;4.0;;
69917;SDS011;57203;42.672;23.334;2022-09-09T01:44:11;5.5;;;4.1;;
69917;SDS011;57203;42.672;23.334;2022-09-09T01:45:11;5.5;;;3.8;;
69917;SDS011;57203;42.672;23.334;2022-09-09T01:47:12;5.8;;;4.2;;
69917;SDS011;57203;42.672;23.334;2022-09-09T01:48:12;5.5;;;4.6;;
69917;SDS011;57203;42.672;23.334;2022-09-09T01:49:12;5.8;;;4.1;;
69917;SDS011;57203;42.672;23.334;2022-09-09T01:50:13;5.8;;;3.8;;
69917;SDS011;57203;42.672;23.334;2022-09-09T01:51:13;8.7;;;4.2;;
69917;SDS011;57203;42.672;23.334;2022-09-09T01:52:13;8.7;;;4.8;;
69917;SDS011;57203;42.672;23.334;2022-09-09T01:53:13;6.3;;;4.6;;
69917;SDS011;57203;42.672;23.334;2022-09-09T01:54:13;7.0;;;4.2;;
69917;SDS011;57203;42.672;23.334;2022-09-09T01:55:14;6.3;;;4.3;;
69917;SDS011;57203;42.672;23.334;2022-09-09T01:56:17;6.3;;;5.2;;
69917;SDS011;57203;42.672;23.334;2022-09-09T01:57:15;6.7;;;4.9;;
69917;SDS011;57203;42.672;23.334;2022-09-09T01:58:18;6.7;;;4.3;;
69917;SDS011;57203;42.672;23.334;2022-09-09T01:59:19;6.3;;;4.2;;
69917;SDS011;57203;42.672;23.334;2022-09-09T02:01:16;6.3;;;4.4;;
69917;SDS011;57203;42.672;23.334;2022-09-09T02:02:16;6.3;;;4.2;;
69917;SDS011;57203;42.672;23.334;2022-09-09T02:03:17;5.9;;;4.5;;
69917;SDS011;57203;42.672;23.334;2022-09-09T02:04:19;5.2;;;4.6;;
69917;SDS011;57203;42.672;23.334;2022-09-09T02:05:19;9.1;;;5.0;;
69917;SDS011;57203;42.672;23.334;2022-09-09T02:06:19;6.9;;;4.2;;
69917;SDS011;57203;42.672;23.334;2022-09-09T02:07:21;5.5;;;3.8;;
69917;SDS011;57203;42.672;23.334;2022-09-09T02:08:17;5.7;;;3.9;;
69917;SDS011;57203;42.672;23.334;2022-09-09T02:09:17;5.7;;;3.8;;
69917;SDS011;57203;42.672;23.334;2022-09-09T02:10:19;5.2;;;3.9;;
69917;SDS011;57203;42.672;23.334;2022-09-09T02:11:18;7.7;;;5.1;;
69917;SDS011;57203;42.672;23.334;2022-09-09T02:12:18;6.4;;;4.5;;
69917;SDS011;57203;42.672;23.334;2022-09-09T02:13:18;6.7;;;4.2;;
69917;SDS011;57203;42.672;23.334;2022-09-09T02:14:19;6.7;;;4.3;;
69917;SDS011;57203;42.672;23.334;2022-09-09T02:15:20;8.8;;;4.2;;
69917;SDS011;57203;42.672;23.334;2022-09-09T02:16:21;5.1;;;3.9;;
69917;SDS011;57203;42.672;23.334;2022-09-09T02:17:19;5.1;;;4.2;;
69917;SDS011;57203;42.672;23.334;2022-09-09T02:18:21;5.9;;;3.6;;
69917;SDS011;57203;42.672;23.334;2022-09-09T02:19:19;4.3;;;3.7;;
69917;SDS011;57203;42.672;23.334;2022-09-09T02:20:20;4.3;;;4.4;;
69917;SDS011;57203;42.672;23.334;2022-09-09T02:21:19;6.1;;;3.7;;
69917;SDS011;57203;42.672;23.334;2022-09-09T02:22:20;4.6;;;4.1;;
69917;SDS011;57203;42.672;23.334;2022-09-09T02:23:20;4.4;;;3.3;;
69917;SDS011;57203;42.672;23.334;2022-09-09T02:24:20;5.1;;;4.0;;
69917;SDS011;57203;42.672;23.334;2022-09-09T02:25:22;4.7;;;3.6;;
69917;SDS011;57203;42.672;23.334;2022-09-09T02:26:20;4.7;;;3.8;;
69917;SDS011;57203;42.672;23.334;2022-09-09T02:27:21;5.2;;;4.3;;
69917;SDS011;57203;42.672;23.334;2022-09-09T02:29:23;6.1;;;3.6;;
69917;SDS011;57203;42.672;23.334;2022-09-09T02:30:21;5.3;;;4.1;;
69917;SDS011;57203;42.672;23.334;2022-09-09T02:31:22;5.4;;;4.0;;
69917;SDS011;57203;42.672;23.334;2022-09-09T02:33:22;5.3;;;4.2;;
69917;SDS011;57203;42.672;23.334;2022-09-09T02:34:22;6.7;;;4.7;;
69917;SDS011;57203;42.672;23.334;2022-09-09T02:35:23;6.7;;;4.5;;
69917;SDS011;57203;42.672;23.334;2022-09-09T02:36:23;5.4;;;4.1;;
69917;SDS011;57203;42.672;23.334;2022-09-09T02:37:24;5.3;;;4.3;;
69917;SDS011;57203;42.672;23.334;2022-09-09T02:38:24;5.3;;;4.2;;
69917;SDS011;57203;42.672;23.334;2022-09-09T02:40:24;5.9;;;4.7;;
69917;SDS011;57203;42.672;23.334;2022-09-09T02:41:26;6.1;;;4.1;;
69917;SDS011;57203;42.672;23.334;2022-09-09T02:42:24;5.7;;;4.2;;
69917;SDS011;57203;42.672;23.334;2022-09-09T02:43:24;5.4;;;4.3;;
69917;SDS011;57203;42.672;23.334;2022-09-09T02:44:25;5.8;;;4.6;;
69917;SDS011;57203;42.672;23.334;2022-09-09T02:45:27;7.1;;;4.4;;
69917;SDS011;57203;42.672;23.334;2022-09-09T02:46:29;5.4;;;4.8;;
69917;SDS011;57203;42.672;23.334;2022-09-09T02:47:27;6.8;;;4.6;;
69917;SDS011;57203;42.672;23.334;2022-09-09T02:48:26;6.2;;;5.1;;
69917;SDS011;57203;42.672;23.334;2022-09-09T02:49:28;7.3;;;5.0;;
69917;SDS011;57203;42.672;23.334;2022-09-09T02:50:27;10.5;;;4.1;;
69917;SDS011;57203;42.672;23.334;2022-09-09T02:51:27;5.8;;;4.9;;
69917;SDS011;57203;42.672;23.334;2022-09-09T02:52:27;5.8;;;5.7;;
69917;SDS011;57203;42.672;23.334;2022-09-09T02:53:28;6.0;;;4.5;;
69917;SDS011;57203;42.672;23.334;2022-09-09T02:55:29;7.1;;;4.4;;
69917;SDS011;57203;42.672;23.334;2022-09-09T02:56:27;5.9;;;4.5;;
69917;SDS011;57203;42.672;23.334;2022-09-09T02:57:27;8.5;;;5.0;;
69917;SDS011;57203;42.672;23.334;2022-09-09T02:59:28;7.6;;;5.6;;
69917;SDS011;57203;42.672;23.334;2022-09-09T03:00:28;8.3;;;4.4;;
69917;SDS011;57203;42.672;23.334;2022-09-09T03:01:28;6.4;;;4.9;;
69917;SDS011;57203;42.672;23.334;2022-09-09T03:02:28;6.4;;;5.3;;
69917;SDS011;57203;42.672;23.334;2022-09-09T03:03:29;7.2;;;5.1;;
69917;SDS011;57203;42.672;23.334;2022-09-09T03:04:29;7.2;;;4.5;;
69917;SDS011;57203;42.672;23.334;2022-09-09T03:05:29;5.6;;;4.7;;
69917;SDS011;57203;42.672;23.334;2022-09-09T03:06:29;5.6;;;5.1;;
69917;SDS011;57203;42.672;23.334;2022-09-09T03:07:29;7.2;;;5.4;;
69917;SDS011;57203;42.672;23.334;2022-09-09T03:08:30;6.9;;;5.3;;
69917;SDS011;57203;42.672;23.334;2022-09-09T03:09:30;6.9;;;5.1;;
69917;SDS011;57203;42.672;23.334;2022-09-09T03:10:30;7.0;;;5.4;;
69917;SDS011;57203;42.672;23.334;2022-09-09T03:11:30;8.1;;;5.2;;
69917;SDS011;57203;42.672;23.334;2022-09-09T03:12:30;8.1;;;5.7;;
69917;SDS011;57203;42.672;23.334;2022-09-09T03:13:31;9.5;;;5.8;;
69917;SDS011;57203;42.672;23.334;2022-09-09T03:14:31;9.3;;;5.6;;
69917;SDS011;57203;42.672;23.334;2022-09-09T03:15:31;7.8;;;5.5;;
69917;SDS011;57203;42.672;23.334;2022-09-09T03:16:31;7.8;;;5.4;;
69917;SDS011;57203;42.672;23.334;2022-09-09T03:17:32;9.2;;;5.0;;
69917;SDS011;57203;42.672;23.334;2022-09-09T03:18:32;7.4;;;5.5;;
69917;SDS011;57203;42.672;23.334;2022-09-09T03:20:32;6.3;;;4.8;;
69917;SDS011;57203;42.672;23.334;2022-09-09T03:21:32;6.3;;;4.6;;
69917;SDS011;57203;42.672;23.334;2022-09-09T03:22:33;7.7;;;5.5;;
69917;SDS011;57203;42.672;23.334;2022-09-09T03:23:33;7.7;;;5.1;;
69917;SDS011;57203;42.672;23.334;2022-09-09T03:24:33;6.1;;;5.6;;
69917;SDS011;57203;42.672;23.334;2022-09-09T03:25:33;7.8;;;5.1;;
69917;SDS011;57203;42.672;23.334;2022-09-09T03:26:33;7.0;;;5.5;;
69917;SDS011;57203;42.672;23.334;2022-09-09T03:27:34;9.3;;;5.3;;
69917;SDS011;57203;42.672;23.334;2022-09-09T03:28:34;6.6;;;4.8;;
69917;SDS011;57203;42.672;23.334;2022-09-09T03:29:34;6.3;;;4.6;;
69917;SDS011;57203;42.672;23.334;2022-09-09T03:30:34;7.3;;;4.9;;
69917;SDS011;57203;42.672;23.334;2022-09-09T03:31:35;6.7;;;5.0;;
69917;SDS011;57203;42.672;23.334;2022-09-09T03:32:35;6.7;;;4.7;;
69917;SDS011;57203;42.672;23.334;2022-09-09T03:33:35;5.9;;;4.8;;
69917;SDS011;57203;42.672;23.334;2022-09-09T03:34:35;7.0;;;4.6;;
69917;SDS011;57203;42.672;23.334;2022-09-09T03:35:35;8.3;;;5.1;;
69917;SDS011;57203;42.672;23.334;2022-09-09T03:36:36;10.6;;;4.8;;
69917;SDS011;57203;42.672;23.334;2022-09-09T03:37:36;10.6;;;5.0;;
69917;SDS011;57203;42.672;23.334;2022-09-09T03:38:36;7.4;;;4.7;;
69917;SDS011;57203;42.672;23.334;2022-09-09T03:39:36;7.4;;;4.4;;
69917;SDS011;57203;42.672;23.334;2022-09-09T03:40:36;7.2;;;3.9;;
69917;SDS011;57203;42.672;23.334;2022-09-09T03:41:37;4.7;;;5.0;;
69917;SDS011;57203;42.672;23.334;2022-09-09T03:42:37;7.3;;;4.3;;
69917;SDS011;57203;42.672;23.334;2022-09-09T03:43:37;5.5;;;5.2;;
69917;SDS011;57203;42.672;23.334;2022-09-09T03:44:37;6.9;;;4.6;;
69917;SDS011;57203;42.672;23.334;2022-09-09T03:45:37;5.6;;;4.5;;
69917;SDS011;57203;42.672;23.334;2022-09-09T03:46:38;5.6;;;4.2;;
69917;SDS011;57203;42.672;23.334;2022-09-09T03:47:38;5.9;;;4.8;;
69917;SDS011;57203;42.672;23.334;2022-09-09T03:48:38;6.0;;;4.7;;
69917;SDS011;57203;42.672;23.334;2022-09-09T03:49:38;7.0;;;5.1;;
69917;SDS011;57203;42.672;23.334;2022-09-09T03:50:39;6.6;;;4.1;;
69917;SDS011;57203;42.672;23.334;2022-09-09T03:51:39;5.2;;;4.5;;
69917;SDS011;57203;42.672;23.334;2022-09-09T03:52:39;5.3;;;5.4;;
69917;SDS011;57203;42.672;23.334;2022-09-09T03:53:39;8.2;;;5.5;;
69917;SDS011;57203;42.672;23.334;2022-09-09T03:54:39;7.5;;;5.2;;
69917;SDS011;57203;42.672;23.334;2022-09-09T03:56:40;6.1;;;4.6;;
69917;SDS011;57203;42.672;23.334;2022-09-09T03:57:40;6.9;;;5.3;;
69917;SDS011;57203;42.672;23.334;2022-09-09T03:58:40;8.4;;;5.2;;
69917;SDS011;57203;42.672;23.334;2022-09-09T03:59:40;6.4;;;4.6;;
69917;SDS011;57203;42.672;23.334;2022-09-09T04:00:41;6.4;;;5.0;;
69917;SDS011;57203;42.672;23.334;2022-09-09T04:02:41;7.6;;;4.6;;
69917;SDS011;57203;42.672;23.334;2022-09-09T04:03:41;7.6;;;4.5;;
69917;SDS011;57203;42.672;23.334;2022-09-09T04:04:41;7.6;;;4.8;;
69917;SDS011;57203;42.672;23.334;2022-09-09T04:05:42;6.5;;;5.5;;
69917;SDS011;57203;42.672;23.334;2022-09-09T04:06:42;6.6;;;4.9;;
69917;SDS011;57203;42.672;23.334;2022-09-09T04:07:42;6.6;;;5.3;;
69917;SDS011;57203;42.672;23.334;2022-09-09T04:08:42;6.0;;;4.7;;
69917;SDS011;57203;42.672;23.334;2022-09-09T04:09:43;6.0;;;5.4;;
69917;SDS011;57203;42.672;23.334;2022-09-09T04:10:44;7.3;;;5.1;;
69917;SDS011;57203;42.672;23.334;2022-09-09T04:11:43;6.4;;;4.7;;
69917;SDS011;57203;42.672;23.334;2022-09-09T04:12:43;6.2;;;4.8;;
69917;SDS011;57203;42.672;23.334;2022-09-09T04:13:43;8.4;;;5.7;;
69917;SDS011;57203;42.672;23.334;2022-09-09T04:14:44;10.4;;;5.1;;
69917;SDS011;57203;42.672;23.334;2022-09-09T04:15:44;6.8;;;4.9;;
69917;SDS011;57203;42.672;23.334;2022-09-09T04:16:44;6.8;;;5.4;;
69917;SDS011;57203;42.672;23.334;2022-09-09T04:17:44;7.3;;;4.8;;
69917;SDS011;57203;42.672;23.334;2022-09-09T04:19:45;7.1;;;4.9;;
69917;SDS011;57203;42.672;23.334;2022-09-09T04:20:45;8.0;;;5.8;;
69917;SDS011;57203;42.672;23.334;2022-09-09T04:21:45;8.0;;;5.2;;
69917;SDS011;57203;42.672;23.334;2022-09-09T04:22:45;8.6;;;5.7;;
69917;SDS011;57203;42.672;23.334;2022-09-09T04:23:46;6.5;;;5.3;;
69917;SDS011;57203;42.672;23.334;2022-09-09T04:24:46;8.6;;;5.4;;
69917;SDS011;57203;42.672;23.334;2022-09-09T04:25:46;7.7;;;5.2;;
69917;SDS011;57203;42.672;23.334;2022-09-09T04:26:46;7.3;;;5.6;;
69917;SDS011;57203;42.672;23.334;2022-09-09T04:27:46;7.0;;;5.1;;
69917;SDS011;57203;42.672;23.334;2022-09-09T04:28:47;7.0;;;5.3;;
69917;SDS011;57203;42.672;23.334;2022-09-09T04:30:47;8.3;;;5.5;;
69917;SDS011;57203;42.672;23.334;2022-09-09T04:31:47;7.3;;;5.8;;
69917;SDS011;57203;42.672;23.334;2022-09-09T04:32:47;7.3;;;5.0;;
69917;SDS011;57203;42.672;23.334;2022-09-09T04:33:48;6.4;;;5.8;;
69917;SDS011;57203;42.672;23.334;2022-09-09T04:34:48;7.0;;;4.9;;
69917;SDS011;57203;42.672;23.334;2022-09-09T04:35:49;6.2;;;6.0;;
69917;SDS011;57203;42.672;23.334;2022-09-09T04:36:48;8.9;;;5.5;;
69917;SDS011;57203;42.672;23.334;2022-09-09T04:37:48;7.8;;;5.4;;
69917;SDS011;57203;42.672;23.334;2022-09-09T04:38:49;7.3;;;5.5;;
69917;SDS011;57203;42.672;23.334;2022-09-09T04:40:50;7.9;;;5.9;;
69917;SDS011;57203;42.672;23.334;2022-09-09T04:41:49;7.9;;;5.8;;
69917;SDS011;57203;42.672;23.334;2022-09-09T04:42:50;8.0;;;5.0;;
69917;SDS011;57203;42.672;23.334;2022-09-09T04:43:50;8.7;;;5.2;;
69917;SDS011;57203;42.672;23.334;2022-09-09T04:45:50;11.0;;;5.0;;
69917;SDS011;57203;42.672;23.334;2022-09-09T04:46:50;8.7;;;5.5;;
69917;SDS011;57203;42.672;23.334;2022-09-09T04:47:51;8.7;;;5.6;;
69917;SDS011;57203;42.672;23.334;2022-09-09T04:48:51;9.9;;;5.4;;
69917;SDS011;57203;42.672;23.334;2022-09-09T04:49:51;8.7;;;6.0;;
69917;SDS011;57203;42.672;23.334;2022-09-09T04:50:55;8.3;;;4.9;;
69917;SDS011;57203;42.672;23.334;2022-09-09T04:51:53;6.9;;;4.8;;
69917;SDS011;57203;42.672;23.334;2022-09-09T04:52:52;6.9;;;5.1;;
69917;SDS011;57203;42.672;23.334;2022-09-09T04:54:52;5.3;;;4.8;;
69917;SDS011;57203;42.672;23.334;2022-09-09T04:55:52;5.3;;;5.2;;
69917;SDS011;57203;42.672;23.334;2022-09-09T04:57:53;6.0;;;4.8;;
69917;SDS011;57203;42.672;23.334;2022-09-09T04:58:53;6.0;;;5.5;;
69917;SDS011;57203;42.672;23.334;2022-09-09T04:59:53;9.1;;;5.4;;
69917;SDS011;57203;42.672;23.334;2022-09-09T05:00:53;8.1;;;5.1;;
69917;SDS011;57203;42.672;23.334;2022-09-09T05:01:54;6.8;;;5.3;;
69917;SDS011;57203;42.672;23.334;2022-09-09T05:02:54;7.1;;;5.2;;
69917;SDS011;57203;42.672;23.334;2022-09-09T05:03:54;7.1;;;4.5;;
69917;SDS011;57203;42.672;23.334;2022-09-09T05:04:54;6.7;;;5.0;;
69917;SDS011;57203;42.672;23.334;2022-09-09T05:05:56;8.6;;;5.7;;
69917;SDS011;57203;42.672;23.334;2022-09-09T05:06:55;5.8;;;4.8;;
69917;SDS011;57203;42.672;23.334;2022-09-09T05:08:00;9.0;;;5.3;;
69917;SDS011;57203;42.672;23.334;2022-09-09T05:08:55;9.0;;;5.4;;
69917;SDS011;57203;42.672;23.334;2022-09-09T05:09:55;7.1;;;5.6;;
69917;SDS011;57203;42.672;23.334;2022-09-09T05:10:56;8.6;;;5.7;;
69917;SDS011;57203;42.672;23.334;2022-09-09T05:11:56;7.6;;;5.4;;
69917;SDS011;57203;42.672;23.334;2022-09-09T05:12:56;6.6;;;5.5;;
69917;SDS011;57203;42.672;23.334;2022-09-09T05:13:56;6.6;;;5.8;;
69917;SDS011;57203;42.672;23.334;2022-09-09T05:14:57;8.8;;;5.0;;
69917;SDS011;57203;42.672;23.334;2022-09-09T05:15:57;6.1;;;6.4;;
69917;SDS011;57203;42.672;23.334;2022-09-09T05:16:57;9.4;;;5.7;;
69917;SDS011;57203;42.672;23.334;2022-09-09T05:17:57;9.1;;;5.8;;
69917;SDS011;57203;42.672;23.334;2022-09-09T05:18:57;7.9;;;5.9;;
69917;SDS011;57203;42.672;23.334;2022-09-09T05:20:58;6.9;;;5.6;;
69917;SDS011;57203;42.672;23.334;2022-09-09T05:21:58;6.9;;;5.2;;
69917;SDS011;57203;42.672;23.334;2022-09-09T05:22:58;8.7;;;6.1;;
69917;SDS011;57203;42.672;23.334;2022-09-09T05:23:58;8.7;;;6.2;;
69917;SDS011;57203;42.672;23.334;2022-09-09T05:24:59;9.0;;;5.2;;
69917;SDS011;57203;42.672;23.334;2022-09-09T05:25:59;9.5;;;5.4;;
69917;SDS011;57203;42.672;23.334;2022-09-09T05:26:59;7.3;;;5.5;;
69917;SDS011;57203;42.672;23.334;2022-09-09T05:27:59;8.8;;;5.7;;
69917;SDS011;57203;42.672;23.334;2022-09-09T05:29:00;8.8;;;5.9;;
69917;SDS011;57203;42.672;23.334;2022-09-09T05:30:00;8.4;;;5.6;;
69917;SDS011;57203;42.672;23.334;2022-09-09T05:31:01;6.9;;;5.0;;
69917;SDS011;57203;42.672;23.334;2022-09-09T05:32:00;6.9;;;5.5;;
69917;SDS011;57203;42.672;23.334;2022-09-09T05:33:00;8.5;;;5.0;;
69917;SDS011;57203;42.672;23.334;2022-09-09T05:34:01;8.5;;;5.2;;
69917;SDS011;57203;42.672;23.334;2022-09-09T05:35:01;9.1;;;4.5;;
69917;SDS011;57203;42.672;23.334;2022-09-09T05:36:02;5.9;;;4.3;;
69917;SDS011;57203;42.672;23.334;2022-09-09T05:37:01;7.4;;;4.5;;
69917;SDS011;57203;42.672;23.334;2022-09-09T05:38:02;6.2;;;4.7;;
69917;SDS011;57203;42.672;23.334;2022-09-09T05:39:02;6.6;;;4.4;;
69917;SDS011;57203;42.672;23.334;2022-09-09T05:40:02;6.6;;;4.7;;
69917;SDS011;57203;42.672;23.334;2022-09-09T05:41:02;7.0;;;4.3;;
69917;SDS011;57203;42.672;23.334;2022-09-09T05:42:03;5.4;;;3.8;;
69917;SDS011;57203;42.672;23.334;2022-09-09T05:43:03;5.3;;;4.0;;
69917;SDS011;57203;42.672;23.334;2022-09-09T05:44:03;5.5;;;4.8;;
69917;SDS011;57203;42.672;23.334;2022-09-09T05:45:03;7.1;;;4.7;;
69917;SDS011;57203;42.672;23.334;2022-09-09T05:46:04;7.1;;;4.3;;
69917;SDS011;57203;42.672;23.334;2022-09-09T05:47:04;9.8;;;4.8;;
69917;SDS011;57203;42.672;23.334;2022-09-09T05:48:04;6.7;;;5.1;;
69917;SDS011;57203;42.672;23.334;2022-09-09T05:49:04;8.3;;;5.0;;
69917;SDS011;57203;42.672;23.334;2022-09-09T05:50:05;6.4;;;5.1;;
69917;SDS011;57203;42.672;23.334;2022-09-09T05:51:05;7.6;;;4.8;;
69917;SDS011;57203;42.672;23.334;2022-09-09T05:52:05;6.3;;;4.7;;
69917;SDS011;57203;42.672;23.334;2022-09-09T05:53:05;7.1;;;4.6;;
69917;SDS011;57203;42.672;23.334;2022-09-09T05:55:06;8.2;;;4.0;;
69917;SDS011;57203;42.672;23.334;2022-09-09T05:56:06;5.9;;;5.1;;
69917;SDS011;57203;42.672;23.334;2022-09-09T05:57:06;6.5;;;4.5;;
69917;SDS011;57203;42.672;23.334;2022-09-09T05:58:06;6.9;;;4.1;;
69917;SDS011;57203;42.672;23.334;2022-09-09T06:00:07;7.7;;;4.5;;
69917;SDS011;57203;42.672;23.334;2022-09-09T06:01:08;5.7;;;4.7;;
69917;SDS011;57203;42.672;23.334;2022-09-09T06:02:07;5.7;;;4.4;;
69917;SDS011;57203;42.672;23.334;2022-09-09T06:03:08;6.2;;;3.9;;
69917;SDS011;57203;42.672;23.334;2022-09-09T06:04:07;7.1;;;4.5;;
69917;SDS011;57203;42.672;23.334;2022-09-09T06:05:08;7.1;;;3.7;;
69917;SDS011;57203;42.672;23.334;2022-09-09T06:06:09;5.4;;;4.4;;
69917;SDS011;57203;42.672;23.334;2022-09-09T06:07:08;6.0;;;4.8;;
69917;SDS011;57203;42.672;23.334;2022-09-09T06:08:08;4.7;;;4.0;;
69917;SDS011;57203;42.672;23.334;2022-09-09T06:09:09;4.7;;;4.5;;
69917;SDS011;57203;42.672;23.334;2022-09-09T06:10:09;5.8;;;4.3;;
69917;SDS011;57203;42.672;23.334;2022-09-09T06:11:10;8.0;;;5.0;;
69917;SDS011;57203;42.672;23.334;2022-09-09T06:12:09;8.0;;;4.2;;
69917;SDS011;57203;42.672;23.334;2022-09-09T06:15:10;5.1;;;3.5;;
69917;SDS011;57203;42.672;23.334;2022-09-09T06:16:11;5.3;;;3.9;;
69917;SDS011;57203;42.672;23.334;2022-09-09T06:17:10;5.7;;;4.2;;
69917;SDS011;57203;42.672;23.334;2022-09-09T06:18:11;5.3;;;4.1;;
69917;SDS011;57203;42.672;23.334;2022-09-09T06:19:11;7.3;;;4.6;;
69917;SDS011;57203;42.672;23.334;2022-09-09T06:20:11;7.3;;;4.9;;
69917;SDS011;57203;42.672;23.334;2022-09-09T06:21:14;7.3;;;4.3;;
69917;SDS011;57203;42.672;23.334;2022-09-09T06:22:11;5.6;;;3.8;;
69917;SDS011;57203;42.672;23.334;2022-09-09T06:23:12;5.9;;;4.2;;
69917;SDS011;57203;42.672;23.334;2022-09-09T06:24:12;5.7;;;3.8;;
69917;SDS011;57203;42.672;23.334;2022-09-09T06:25:12;5.7;;;4.7;;
69917;SDS011;57203;42.672;23.334;2022-09-09T06:26:13;6.7;;;4.0;;
69917;SDS011;57203;42.672;23.334;2022-09-09T06:27:13;7.1;;;4.5;;
69917;SDS011;57203;42.672;23.334;2022-09-09T06:28:13;7.1;;;3.7;;
69917;SDS011;57203;42.672;23.334;2022-09-09T06:29:13;6.6;;;4.2;;
69917;SDS011;57203;42.672;23.334;2022-09-09T06:30:13;5.4;;;4.0;;
69917;SDS011;57203;42.672;23.334;2022-09-09T06:31:15;5.2;;;3.6;;
69917;SDS011;57203;42.672;23.334;2022-09-09T06:32:14;5.4;;;4.0;;
69917;SDS011;57203;42.672;23.334;2022-09-09T06:33:14;6.3;;;4.2;;
69917;SDS011;57203;42.672;23.334;2022-09-09T06:34:14;6.3;;;3.8;;
69917;SDS011;57203;42.672;23.334;2022-09-09T06:35:14;5.2;;;3.9;;
69917;SDS011;57203;42.672;23.334;2022-09-09T06:36:15;5.6;;;3.8;;
69917;SDS011;57203;42.672;23.334;2022-09-09T06:37:15;5.6;;;3.7;;
69917;SDS011;57203;42.672;23.334;2022-09-09T06:38:15;5.6;;;3.9;;
69917;SDS011;57203;42.672;23.334;2022-09-09T06:39:15;5.6;;;3.8;;
69917;SDS011;57203;42.672;23.334;2022-09-09T06:40:16;5.7;;;3.9;;
69917;SDS011;57203;42.672;23.334;2022-09-09T06:42:16;4.5;;;3.4;;
69917;SDS011;57203;42.672;23.334;2022-09-09T06:43:16;4.5;;;3.6;;
69917;SDS011;57203;42.672;23.334;2022-09-09T06:44:16;5.0;;;3.4;;